sensor_id;sensor_type;location;lat;lon;timestamp;P1;durP1;ratioP1;P2;durP2;ratioP2
64816;SDS011;69411;45.656;11.740;2023-12-20T00:01:49;71.97;;;40.17;;
64816;SDS011;69411;45.656;11.740;2023-12-20T00:04:15;73.97;;;39.42;;
64816;SDS011;69411;45.656;11.740;2023-12-20T00:06:41;67.97;;;36.47;;
64816;SDS011;69411;45.656;11.740;2023-12-20T00:09:07;75.82;;;41.13;;
64816;SDS011;69411;45.656;11.740;2023-12-20T00:11:33;68.05;;;37.75;;
64816;SDS011;69411;45.656;11.740;2023-12-20T00:13:58;64.63;;;34.20;;
64816;SDS011;69411;45.656;11.740;2023-12-20T00:16:24;76.22;;;40.60;;
64816;SDS011;69411;45.656;11.740;2023-12-20T00:18:50;65.75;;;36.88;;
64816;SDS011;69411;45.656;11.740;2023-12-20T00:21:16;70.85;;;40.53;;
64816;SDS011;69411;45.656;11.740;2023-12-20T00:23:42;81.53;;;44.13;;
64816;SDS011;69411;45.656;11.740;2023-12-20T00:26:08;72.38;;;37.63;;
64816;SDS011;69411;45.656;11.740;2023-12-20T00:28:34;67.13;;;38.53;;
64816;SDS011;69411;45.656;11.740;2023-12-20T00:31:00;69.43;;;37.03;;
64816;SDS011;69411;45.656;11.740;2023-12-20T00:33:26;70.88;;;39.88;;
64816;SDS011;69411;45.656;11.740;2023-12-20T00:35:52;68.15;;;36.15;;
64816;SDS011;69411;45.656;11.740;2023-12-20T00:38:17;63.78;;;34.85;;
64816;SDS011;69411;45.656;11.740;2023-12-20T00:40:43;68.88;;;37.88;;
64816;SDS011;69411;45.656;11.740;2023-12-20T00:43:09;76.32;;;40.67;;
64816;SDS011;69411;45.656;11.740;2023-12-20T00:45:35;77.40;;;43.25;;
64816;SDS011;69411;45.656;11.740;2023-12-20T00:48:02;59.85;;;35.58;;
64816;SDS011;69411;45.656;11.740;2023-12-20T00:50:28;61.38;;;34.45;;
64816;SDS011;69411;45.656;11.740;2023-12-20T00:52:54;66.20;;;38.25;;
64816;SDS011;69411;45.656;11.740;2023-12-20T00:55:20;61.63;;;35.85;;
64816;SDS011;69411;45.656;11.740;2023-12-20T00:57:46;65.55;;;36.00;;
64816;SDS011;69411;45.656;11.740;2023-12-20T01:00:12;65.18;;;37.65;;
64816;SDS011;69411;45.656;11.740;2023-12-20T01:02:38;66.18;;;33.08;;
64816;SDS011;69411;45.656;11.740;2023-12-20T01:05:05;66.43;;;34.35;;
64816;SDS011;69411;45.656;11.740;2023-12-20T01:07:32;58.90;;;33.85;;
64816;SDS011;69411;45.656;11.740;2023-12-20T01:09:59;55.90;;;30.75;;
64816;SDS011;69411;45.656;11.740;2023-12-20T01:12:25;59.60;;;31.23;;
64816;SDS011;69411;45.656;11.740;2023-12-20T01:14:51;55.92;;;30.98;;
64816;SDS011;69411;45.656;11.740;2023-12-20T01:17:17;57.58;;;31.92;;
64816;SDS011;69411;45.656;11.740;2023-12-20T01:19:43;60.35;;;34.72;;
64816;SDS011;69411;45.656;11.740;2023-12-20T01:22:09;61.35;;;32.22;;
64816;SDS011;69411;45.656;11.740;2023-12-20T01:24:35;54.05;;;32.47;;
64816;SDS011;69411;45.656;11.740;2023-12-20T01:27:01;53.55;;;30.67;;
64816;SDS011;69411;45.656;11.740;2023-12-20T01:29:27;59.17;;;30.20;;
64816;SDS011;69411;45.656;11.740;2023-12-20T01:31:53;57.80;;;32.58;;
64816;SDS011;69411;45.656;11.740;2023-12-20T01:34:19;59.60;;;33.05;;
64816;SDS011;69411;45.656;11.740;2023-12-20T01:36:45;58.70;;;32.30;;
64816;SDS011;69411;45.656;11.740;2023-12-20T01:39:11;63.20;;;32.65;;
64816;SDS011;69411;45.656;11.740;2023-12-20T01:41:37;55.70;;;28.83;;
64816;SDS011;69411;45.656;11.740;2023-12-20T01:44:03;51.92;;;27.23;;
64816;SDS011;69411;45.656;11.740;2023-12-20T01:46:29;53.58;;;29.30;;
64816;SDS011;69411;45.656;11.740;2023-12-20T01:48:55;57.13;;;30.58;;
64816;SDS011;69411;45.656;11.740;2023-12-20T01:51:22;57.40;;;29.63;;
64816;SDS011;69411;45.656;11.740;2023-12-20T01:53:48;52.25;;;29.02;;
64816;SDS011;69411;45.656;11.740;2023-12-20T01:56:15;49.42;;;26.65;;
64816;SDS011;69411;45.656;11.740;2023-12-20T01:58:45;53.80;;;28.70;;
64816;SDS011;69411;45.656;11.740;2023-12-20T02:01:12;46.88;;;25.55;;
64816;SDS011;69411;45.656;11.740;2023-12-20T02:03:40;45.63;;;26.27;;
64816;SDS011;69411;45.656;11.740;2023-12-20T02:06:07;52.92;;;28.27;;
64816;SDS011;69411;45.656;11.740;2023-12-20T02:08:34;53.22;;;29.65;;
64816;SDS011;69411;45.656;11.740;2023-12-20T02:11:01;53.90;;;29.17;;
64816;SDS011;69411;45.656;11.740;2023-12-20T02:13:27;48.40;;;27.48;;
64816;SDS011;69411;45.656;11.740;2023-12-20T02:15:53;48.70;;;26.27;;
64816;SDS011;69411;45.656;11.740;2023-12-20T02:18:20;51.47;;;27.13;;
64816;SDS011;69411;45.656;11.740;2023-12-20T02:20:46;48.88;;;26.15;;
64816;SDS011;69411;45.656;11.740;2023-12-20T02:23:12;45.78;;;27.25;;
64816;SDS011;69411;45.656;11.740;2023-12-20T02:25:37;45.05;;;27.13;;
64816;SDS011;69411;45.656;11.740;2023-12-20T02:28:04;41.97;;;23.63;;
64816;SDS011;69411;45.656;11.740;2023-12-20T02:30:30;48.80;;;25.73;;
64816;SDS011;69411;45.656;11.740;2023-12-20T02:32:56;48.10;;;24.70;;
64816;SDS011;69411;45.656;11.740;2023-12-20T02:35:25;53.65;;;29.50;;
64816;SDS011;69411;45.656;11.740;2023-12-20T02:37:50;45.90;;;25.85;;
64816;SDS011;69411;45.656;11.740;2023-12-20T02:40:16;48.45;;;25.85;;
64816;SDS011;69411;45.656;11.740;2023-12-20T02:42:42;48.60;;;26.67;;
64816;SDS011;69411;45.656;11.740;2023-12-20T02:45:08;51.58;;;28.35;;
64816;SDS011;69411;45.656;11.740;2023-12-20T02:47:34;48.63;;;26.98;;
64816;SDS011;69411;45.656;11.740;2023-12-20T02:50:00;47.08;;;27.13;;
64816;SDS011;69411;45.656;11.740;2023-12-20T02:52:27;42.45;;;22.38;;
64816;SDS011;69411;45.656;11.740;2023-12-20T02:54:54;44.25;;;24.95;;
64816;SDS011;69411;45.656;11.740;2023-12-20T02:57:20;44.58;;;24.90;;
64816;SDS011;69411;45.656;11.740;2023-12-20T02:59:46;50.13;;;26.85;;
64816;SDS011;69411;45.656;11.740;2023-12-20T03:02:12;41.13;;;24.30;;
64816;SDS011;69411;45.656;11.740;2023-12-20T03:04:38;46.58;;;24.17;;
64816;SDS011;69411;45.656;11.740;2023-12-20T03:07:03;40.17;;;22.98;;
64816;SDS011;69411;45.656;11.740;2023-12-20T03:09:29;42.90;;;24.92;;
64816;SDS011;69411;45.656;11.740;2023-12-20T03:11:55;42.25;;;23.98;;
64816;SDS011;69411;45.656;11.740;2023-12-20T03:14:21;47.63;;;27.08;;
64816;SDS011;69411;45.656;11.740;2023-12-20T03:16:50;46.95;;;24.50;;
64816;SDS011;69411;45.656;11.740;2023-12-20T03:19:17;36.75;;;21.33;;
64816;SDS011;69411;45.656;11.740;2023-12-20T03:21:44;40.00;;;23.00;;
64816;SDS011;69411;45.656;11.740;2023-12-20T03:24:10;38.30;;;20.50;;
64816;SDS011;69411;45.656;11.740;2023-12-20T03:26:36;44.05;;;22.50;;
64816;SDS011;69411;45.656;11.740;2023-12-20T03:29:02;32.80;;;20.10;;
64816;SDS011;69411;45.656;11.740;2023-12-20T03:31:28;35.53;;;20.73;;
64816;SDS011;69411;45.656;11.740;2023-12-20T03:33:54;37.58;;;21.83;;
64816;SDS011;69411;45.656;11.740;2023-12-20T03:36:20;38.85;;;21.38;;
64816;SDS011;69411;45.656;11.740;2023-12-20T03:38:46;40.97;;;21.67;;
64816;SDS011;69411;45.656;11.740;2023-12-20T03:41:12;38.97;;;20.90;;
64816;SDS011;69411;45.656;11.740;2023-12-20T03:43:38;44.90;;;23.48;;
64816;SDS011;69411;45.656;11.740;2023-12-20T03:46:05;36.38;;;21.67;;
64816;SDS011;69411;45.656;11.740;2023-12-20T03:48:31;40.13;;;20.63;;
64816;SDS011;69411;45.656;11.740;2023-12-20T03:50:57;42.75;;;22.20;;
64816;SDS011;69411;45.656;11.740;2023-12-20T03:53:23;38.63;;;22.17;;
64816;SDS011;69411;45.656;11.740;2023-12-20T03:55:48;39.30;;;22.27;;
64816;SDS011;69411;45.656;11.740;2023-12-20T03:58:14;34.80;;;19.67;;
64816;SDS011;69411;45.656;11.740;2023-12-20T04:00:40;33.05;;;18.98;;
64816;SDS011;69411;45.656;11.740;2023-12-20T04:03:06;35.88;;;19.95;;
64816;SDS011;69411;45.656;11.740;2023-12-20T04:05:32;29.88;;;18.95;;
64816;SDS011;69411;45.656;11.740;2023-12-20T04:07:59;30.60;;;19.02;;
64816;SDS011;69411;45.656;11.740;2023-12-20T04:10:26;33.70;;;19.70;;
64816;SDS011;69411;45.656;11.740;2023-12-20T04:12:53;38.63;;;20.73;;
64816;SDS011;69411;45.656;11.740;2023-12-20T04:15:20;33.45;;;18.30;;
64816;SDS011;69411;45.656;11.740;2023-12-20T04:17:46;33.20;;;18.15;;
64816;SDS011;69411;45.656;11.740;2023-12-20T04:20:12;30.30;;;16.20;;
64816;SDS011;69411;45.656;11.740;2023-12-20T04:22:38;31.92;;;16.90;;
64816;SDS011;69411;45.656;11.740;2023-12-20T04:25:04;29.80;;;17.67;;
64816;SDS011;69411;45.656;11.740;2023-12-20T04:27:30;28.98;;;16.08;;
64816;SDS011;69411;45.656;11.740;2023-12-20T04:29:56;30.08;;;16.50;;
64816;SDS011;69411;45.656;11.740;2023-12-20T04:32:22;32.60;;;17.92;;
64816;SDS011;69411;45.656;11.740;2023-12-20T04:34:48;31.25;;;17.38;;
64816;SDS011;69411;45.656;11.740;2023-12-20T04:37:14;29.85;;;16.38;;
64816;SDS011;69411;45.656;11.740;2023-12-20T04:39:40;28.52;;;16.92;;
64816;SDS011;69411;45.656;11.740;2023-12-20T04:42:06;33.42;;;17.38;;
64816;SDS011;69411;45.656;11.740;2023-12-20T04:44:32;33.10;;;16.60;;
64816;SDS011;69411;45.656;11.740;2023-12-20T04:46:58;28.83;;;16.45;;
64816;SDS011;69411;45.656;11.740;2023-12-20T04:49:25;26.30;;;16.08;;
64816;SDS011;69411;45.656;11.740;2023-12-20T04:51:51;27.23;;;16.70;;
64816;SDS011;69411;45.656;11.740;2023-12-20T04:54:16;28.92;;;16.58;;
64816;SDS011;69411;45.656;11.740;2023-12-20T04:56:42;28.15;;;15.93;;
64816;SDS011;69411;45.656;11.740;2023-12-20T04:59:08;30.80;;;17.23;;
64816;SDS011;69411;45.656;11.740;2023-12-20T05:01:34;26.85;;;15.57;;
64816;SDS011;69411;45.656;11.740;2023-12-20T05:04:00;27.15;;;15.90;;
64816;SDS011;69411;45.656;11.740;2023-12-20T05:06:26;29.02;;;16.10;;
64816;SDS011;69411;45.656;11.740;2023-12-20T05:08:52;27.70;;;16.05;;
64816;SDS011;69411;45.656;11.740;2023-12-20T05:11:18;28.73;;;16.33;;
64816;SDS011;69411;45.656;11.740;2023-12-20T05:13:44;29.48;;;16.15;;
64816;SDS011;69411;45.656;11.740;2023-12-20T05:16:10;27.85;;;14.93;;
64816;SDS011;69411;45.656;11.740;2023-12-20T05:18:36;24.58;;;14.98;;
64816;SDS011;69411;45.656;11.740;2023-12-20T05:21:02;26.05;;;14.65;;
64816;SDS011;69411;45.656;11.740;2023-12-20T05:23:28;28.75;;;15.10;;
64816;SDS011;69411;45.656;11.740;2023-12-20T05:25:54;25.95;;;13.73;;
64816;SDS011;69411;45.656;11.740;2023-12-20T05:28:20;27.00;;;14.88;;
64816;SDS011;69411;45.656;11.740;2023-12-20T05:30:46;26.85;;;15.45;;
64816;SDS011;69411;45.656;11.740;2023-12-20T05:33:12;26.05;;;14.70;;
64816;SDS011;69411;45.656;11.740;2023-12-20T05:35:38;24.52;;;14.40;;
64816;SDS011;69411;45.656;11.740;2023-12-20T05:38:04;22.80;;;14.20;;
64816;SDS011;69411;45.656;11.740;2023-12-20T05:40:30;22.70;;;12.20;;
64816;SDS011;69411;45.656;11.740;2023-12-20T05:42:56;21.60;;;11.85;;
64816;SDS011;69411;45.656;11.740;2023-12-20T05:45:21;18.23;;;11.75;;
64816;SDS011;69411;45.656;11.740;2023-12-20T05:47:47;19.08;;;11.38;;
64816;SDS011;69411;45.656;11.740;2023-12-20T05:50:13;20.35;;;11.65;;
64816;SDS011;69411;45.656;11.740;2023-12-20T05:52:40;22.02;;;12.48;;
64816;SDS011;69411;45.656;11.740;2023-12-20T05:55:06;20.33;;;12.75;;
64816;SDS011;69411;45.656;11.740;2023-12-20T05:57:32;24.75;;;12.82;;
64816;SDS011;69411;45.656;11.740;2023-12-20T05:59:58;26.20;;;13.43;;
64816;SDS011;69411;45.656;11.740;2023-12-20T06:02:24;25.50;;;14.18;;
64816;SDS011;69411;45.656;11.740;2023-12-20T06:04:50;29.00;;;15.10;;
64816;SDS011;69411;45.656;11.740;2023-12-20T06:07:16;32.10;;;16.90;;
64816;SDS011;69411;45.656;11.740;2023-12-20T06:09:42;28.20;;;16.70;;
64816;SDS011;69411;45.656;11.740;2023-12-20T06:12:08;31.33;;;17.27;;
64816;SDS011;69411;45.656;11.740;2023-12-20T06:14:34;36.35;;;18.83;;
64816;SDS011;69411;45.656;11.740;2023-12-20T06:17:00;33.97;;;18.55;;
64816;SDS011;69411;45.656;11.740;2023-12-20T06:19:27;33.83;;;17.30;;
64816;SDS011;69411;45.656;11.740;2023-12-20T06:21:53;29.40;;;17.13;;
64816;SDS011;69411;45.656;11.740;2023-12-20T06:24:19;29.98;;;16.30;;
64816;SDS011;69411;45.656;11.740;2023-12-20T06:26:45;30.05;;;16.55;;
64816;SDS011;69411;45.656;11.740;2023-12-20T06:29:11;41.03;;;20.35;;
64816;SDS011;69411;45.656;11.740;2023-12-20T06:31:37;24.50;;;13.82;;
64816;SDS011;69411;45.656;11.740;2023-12-20T06:34:03;29.30;;;15.73;;
64816;SDS011;69411;45.656;11.740;2023-12-20T06:36:29;31.00;;;14.65;;
64816;SDS011;69411;45.656;11.740;2023-12-20T06:38:55;30.73;;;16.05;;
64816;SDS011;69411;45.656;11.740;2023-12-20T06:41:21;32.03;;;17.33;;
64816;SDS011;69411;45.656;11.740;2023-12-20T06:43:49;27.55;;;17.08;;
64816;SDS011;69411;45.656;11.740;2023-12-20T06:46:16;31.70;;;17.35;;
64816;SDS011;69411;45.656;11.740;2023-12-20T06:48:42;30.90;;;17.38;;
64816;SDS011;69411;45.656;11.740;2023-12-20T06:51:11;31.30;;;16.65;;
64816;SDS011;69411;45.656;11.740;2023-12-20T06:53:42;43.78;;;22.05;;
64816;SDS011;69411;45.656;11.740;2023-12-20T06:56:10;32.45;;;17.60;;
64816;SDS011;69411;45.656;11.740;2023-12-20T06:58:37;40.70;;;20.08;;
64816;SDS011;69411;45.656;11.740;2023-12-20T07:01:03;41.17;;;19.10;;
64816;SDS011;69411;45.656;11.740;2023-12-20T07:03:30;39.72;;;20.25;;
64816;SDS011;69411;45.656;11.740;2023-12-20T07:05:56;40.90;;;19.33;;
64816;SDS011;69411;45.656;11.740;2023-12-20T07:08:22;33.60;;;17.77;;
64816;SDS011;69411;45.656;11.740;2023-12-20T07:10:48;28.95;;;16.88;;
64816;SDS011;69411;45.656;11.740;2023-12-20T07:13:14;27.70;;;15.00;;
64816;SDS011;69411;45.656;11.740;2023-12-20T07:15:39;24.83;;;14.40;;
64816;SDS011;69411;45.656;11.740;2023-12-20T07:18:05;30.08;;;14.55;;
64816;SDS011;69411;45.656;11.740;2023-12-20T07:20:32;29.33;;;14.93;;
64816;SDS011;69411;45.656;11.740;2023-12-20T07:22:58;24.85;;;14.20;;
64816;SDS011;69411;45.656;11.740;2023-12-20T07:25:25;29.05;;;16.58;;
64816;SDS011;69411;45.656;11.740;2023-12-20T07:27:51;27.95;;;14.35;;
64816;SDS011;69411;45.656;11.740;2023-12-20T07:30:17;27.90;;;15.43;;
64816;SDS011;69411;45.656;11.740;2023-12-20T07:32:43;26.60;;;14.90;;
64816;SDS011;69411;45.656;11.740;2023-12-20T07:35:09;23.73;;;15.23;;
64816;SDS011;69411;45.656;11.740;2023-12-20T07:37:35;26.42;;;14.82;;
64816;SDS011;69411;45.656;11.740;2023-12-20T07:40:01;32.05;;;14.88;;
64816;SDS011;69411;45.656;11.740;2023-12-20T07:42:27;22.75;;;13.25;;
64816;SDS011;69411;45.656;11.740;2023-12-20T07:44:52;25.48;;;14.43;;
64816;SDS011;69411;45.656;11.740;2023-12-20T07:47:18;25.73;;;14.35;;
64816;SDS011;69411;45.656;11.740;2023-12-20T07:49:48;24.33;;;13.45;;
64816;SDS011;69411;45.656;11.740;2023-12-20T07:52:14;24.50;;;13.93;;
64816;SDS011;69411;45.656;11.740;2023-12-20T07:54:40;25.20;;;14.18;;
64816;SDS011;69411;45.656;11.740;2023-12-20T07:57:06;28.98;;;15.18;;
64816;SDS011;69411;45.656;11.740;2023-12-20T07:59:32;27.38;;;14.55;;
64816;SDS011;69411;45.656;11.740;2023-12-20T08:01:58;27.23;;;14.75;;
64816;SDS011;69411;45.656;11.740;2023-12-20T08:04:24;28.80;;;13.73;;
64816;SDS011;69411;45.656;11.740;2023-12-20T08:06:50;28.23;;;14.82;;
64816;SDS011;69411;45.656;11.740;2023-12-20T08:09:17;27.67;;;13.98;;
64816;SDS011;69411;45.656;11.740;2023-12-20T08:11:46;32.25;;;16.88;;
64816;SDS011;69411;45.656;11.740;2023-12-20T08:14:13;31.95;;;17.45;;
64816;SDS011;69411;45.656;11.740;2023-12-20T08:16:39;33.17;;;19.35;;
64816;SDS011;69411;45.656;11.740;2023-12-20T08:19:06;30.33;;;16.52;;
64816;SDS011;69411;45.656;11.740;2023-12-20T08:21:34;35.28;;;19.60;;
64816;SDS011;69411;45.656;11.740;2023-12-20T08:24:01;36.17;;;21.23;;
64816;SDS011;69411;45.656;11.740;2023-12-20T08:26:27;38.15;;;18.83;;
64816;SDS011;69411;45.656;11.740;2023-12-20T08:28:52;32.53;;;18.25;;
64816;SDS011;69411;45.656;11.740;2023-12-20T08:31:18;36.35;;;18.95;;
64816;SDS011;69411;45.656;11.740;2023-12-20T08:33:45;36.65;;;20.45;;
64816;SDS011;69411;45.656;11.740;2023-12-20T08:36:12;33.65;;;17.92;;
64816;SDS011;69411;45.656;11.740;2023-12-20T08:38:38;29.77;;;17.75;;
64816;SDS011;69411;45.656;11.740;2023-12-20T08:41:05;32.58;;;18.52;;
64816;SDS011;69411;45.656;11.740;2023-12-20T08:43:32;35.63;;;18.77;;
64816;SDS011;69411;45.656;11.740;2023-12-20T08:46:01;37.58;;;19.98;;
64816;SDS011;69411;45.656;11.740;2023-12-20T08:48:27;35.42;;;19.90;;
64816;SDS011;69411;45.656;11.740;2023-12-20T08:50:54;34.10;;;18.58;;
64816;SDS011;69411;45.656;11.740;2023-12-20T08:53:20;30.77;;;17.42;;
64816;SDS011;69411;45.656;11.740;2023-12-20T08:55:46;39.33;;;20.55;;
64816;SDS011;69411;45.656;11.740;2023-12-20T08:58:12;33.75;;;17.27;;
64816;SDS011;69411;45.656;11.740;2023-12-20T09:00:39;29.23;;;15.80;;
64816;SDS011;69411;45.656;11.740;2023-12-20T09:03:05;29.20;;;15.75;;
64816;SDS011;69411;45.656;11.740;2023-12-20T09:05:31;34.13;;;18.13;;
64816;SDS011;69411;45.656;11.740;2023-12-20T09:07:57;33.35;;;18.10;;
64816;SDS011;69411;45.656;11.740;2023-12-20T09:10:23;33.95;;;18.50;;
64816;SDS011;69411;45.656;11.740;2023-12-20T09:12:49;36.53;;;20.08;;
64816;SDS011;69411;45.656;11.740;2023-12-20T09:15:25;35.08;;;19.13;;
64816;SDS011;69411;45.656;11.740;2023-12-20T09:17:52;32.75;;;19.38;;
64816;SDS011;69411;45.656;11.740;2023-12-20T09:20:19;34.33;;;18.60;;
64816;SDS011;69411;45.656;11.740;2023-12-20T09:22:45;34.42;;;19.40;;
64816;SDS011;69411;45.656;11.740;2023-12-20T09:25:12;39.17;;;21.73;;
64816;SDS011;69411;45.656;11.740;2023-12-20T09:27:40;31.80;;;18.85;;
64816;SDS011;69411;45.656;11.740;2023-12-20T09:30:06;40.42;;;23.10;;
64816;SDS011;69411;45.656;11.740;2023-12-20T09:32:32;34.05;;;18.25;;
64816;SDS011;69411;45.656;11.740;2023-12-20T09:34:59;36.03;;;19.60;;
64816;SDS011;69411;45.656;11.740;2023-12-20T09:37:27;27.80;;;17.40;;
64816;SDS011;69411;45.656;11.740;2023-12-20T09:39:53;30.77;;;17.65;;
64816;SDS011;69411;45.656;11.740;2023-12-20T09:45:20;32.20;;;17.27;;
64816;SDS011;69411;45.656;11.740;2023-12-20T09:47:52;28.02;;;16.90;;
64816;SDS011;69411;45.656;11.740;2023-12-20T09:50:20;30.60;;;16.05;;
64816;SDS011;69411;45.656;11.740;2023-12-20T09:52:50;27.75;;;15.98;;
64816;SDS011;69411;45.656;11.740;2023-12-20T09:55:18;34.17;;;18.80;;
64816;SDS011;69411;45.656;11.740;2023-12-20T09:57:45;29.75;;;17.40;;
64816;SDS011;69411;45.656;11.740;2023-12-20T10:00:12;27.20;;;16.02;;
64816;SDS011;69411;45.656;11.740;2023-12-20T10:02:41;30.25;;;16.80;;
64816;SDS011;69411;45.656;11.740;2023-12-20T10:05:15;38.28;;;21.17;;
64816;SDS011;69411;45.656;11.740;2023-12-20T10:07:45;33.50;;;18.10;;
64816;SDS011;69411;45.656;11.740;2023-12-20T10:10:12;31.27;;;17.58;;
64816;SDS011;69411;45.656;11.740;2023-12-20T10:12:39;28.80;;;17.45;;
64816;SDS011;69411;45.656;11.740;2023-12-20T10:15:05;30.23;;;17.00;;
64816;SDS011;69411;45.656;11.740;2023-12-20T10:17:31;32.55;;;18.83;;
64816;SDS011;69411;45.656;11.740;2023-12-20T10:19:58;35.67;;;19.70;;
64816;SDS011;69411;45.656;11.740;2023-12-20T10:22:24;34.97;;;21.17;;
64816;SDS011;69411;45.656;11.740;2023-12-20T10:24:50;33.75;;;19.25;;
64816;SDS011;69411;45.656;11.740;2023-12-20T10:27:16;30.33;;;18.48;;
64816;SDS011;69411;45.656;11.740;2023-12-20T10:29:44;34.92;;;20.98;;
64816;SDS011;69411;45.656;11.740;2023-12-20T10:32:26;34.20;;;20.13;;
64816;SDS011;69411;45.656;11.740;2023-12-20T10:34:53;40.63;;;22.15;;
64816;SDS011;69411;45.656;11.740;2023-12-20T10:37:20;36.10;;;20.15;;
64816;SDS011;69411;45.656;11.740;2023-12-20T10:39:50;35.78;;;21.05;;
64816;SDS011;69411;45.656;11.740;2023-12-20T10:42:18;37.00;;;20.30;;
64816;SDS011;69411;45.656;11.740;2023-12-20T10:44:46;32.90;;;19.95;;
64816;SDS011;69411;45.656;11.740;2023-12-20T10:47:14;34.78;;;19.67;;
64816;SDS011;69411;45.656;11.740;2023-12-20T10:49:41;35.72;;;20.15;;
64816;SDS011;69411;45.656;11.740;2023-12-20T10:52:09;33.03;;;18.23;;
64816;SDS011;69411;45.656;11.740;2023-12-20T10:54:38;35.70;;;19.83;;
64816;SDS011;69411;45.656;11.740;2023-12-20T10:57:05;35.72;;;19.27;;
64816;SDS011;69411;45.656;11.740;2023-12-20T10:59:35;33.97;;;19.60;;
64816;SDS011;69411;45.656;11.740;2023-12-20T11:02:04;33.30;;;19.05;;
64816;SDS011;69411;45.656;11.740;2023-12-20T11:07:43;35.35;;;19.25;;
64816;SDS011;69411;45.656;11.740;2023-12-20T11:12:57;35.45;;;20.63;;
64816;SDS011;69411;45.656;11.740;2023-12-20T11:15:35;38.30;;;21.60;;
64816;SDS011;69411;45.656;11.740;2023-12-20T11:18:03;35.28;;;21.30;;
64816;SDS011;69411;45.656;11.740;2023-12-20T11:20:40;42.25;;;23.30;;
64816;SDS011;69411;45.656;11.740;2023-12-20T11:23:07;41.40;;;23.60;;
64816;SDS011;69411;45.656;11.740;2023-12-20T11:28:22;34.70;;;20.08;;
64816;SDS011;69411;45.656;11.740;2023-12-20T11:30:50;34.03;;;20.15;;
64816;SDS011;69411;45.656;11.740;2023-12-20T11:33:24;30.90;;;18.85;;
64816;SDS011;69411;45.656;11.740;2023-12-20T11:38:21;42.15;;;23.00;;
64816;SDS011;69411;45.656;11.740;2023-12-20T11:40:50;32.20;;;21.60;;
64816;SDS011;69411;45.656;11.740;2023-12-20T11:45:50;39.33;;;20.67;;
64816;SDS011;69411;45.656;11.740;2023-12-20T11:48:16;41.15;;;23.02;;
64816;SDS011;69411;45.656;11.740;2023-12-20T11:50:44;37.83;;;21.58;;
64816;SDS011;69411;45.656;11.740;2023-12-20T11:53:10;42.85;;;25.00;;
64816;SDS011;69411;45.656;11.740;2023-12-20T11:55:38;47.78;;;25.90;;
64816;SDS011;69411;45.656;11.740;2023-12-20T11:58:04;51.03;;;27.95;;
64816;SDS011;69411;45.656;11.740;2023-12-20T12:00:30;44.28;;;25.38;;
64816;SDS011;69411;45.656;11.740;2023-12-20T12:02:57;45.60;;;27.05;;
64816;SDS011;69411;45.656;11.740;2023-12-20T12:05:23;45.90;;;26.42;;
64816;SDS011;69411;45.656;11.740;2023-12-20T12:07:50;41.50;;;24.55;;
64816;SDS011;69411;45.656;11.740;2023-12-20T12:10:16;43.55;;;24.67;;
64816;SDS011;69411;45.656;11.740;2023-12-20T12:12:42;38.05;;;23.02;;
64816;SDS011;69411;45.656;11.740;2023-12-20T12:15:08;38.55;;;21.25;;
64816;SDS011;69411;45.656;11.740;2023-12-20T12:17:34;36.80;;;22.90;;
64816;SDS011;69411;45.656;11.740;2023-12-20T12:20:03;40.92;;;23.30;;
64816;SDS011;69411;45.656;11.740;2023-12-20T12:22:31;39.45;;;22.25;;
64816;SDS011;69411;45.656;11.740;2023-12-20T12:25:09;34.92;;;21.13;;
64816;SDS011;69411;45.656;11.740;2023-12-20T12:27:37;39.30;;;22.75;;
64816;SDS011;69411;45.656;11.740;2023-12-20T12:30:05;36.63;;;22.13;;
64816;SDS011;69411;45.656;11.740;2023-12-20T12:32:36;39.40;;;24.13;;
64816;SDS011;69411;45.656;11.740;2023-12-20T12:35:03;46.03;;;26.90;;
64816;SDS011;69411;45.656;11.740;2023-12-20T12:37:33;38.95;;;23.77;;
64816;SDS011;69411;45.656;11.740;2023-12-20T12:40:00;39.22;;;25.00;;
64816;SDS011;69411;45.656;11.740;2023-12-20T12:42:26;41.78;;;26.35;;
64816;SDS011;69411;45.656;11.740;2023-12-20T12:47:37;42.80;;;24.40;;
64816;SDS011;69411;45.656;11.740;2023-12-20T12:50:04;34.95;;;22.00;;
64816;SDS011;69411;45.656;11.740;2023-12-20T12:52:30;43.00;;;24.77;;
64816;SDS011;69411;45.656;11.740;2023-12-20T12:54:57;36.95;;;21.75;;
64816;SDS011;69411;45.656;11.740;2023-12-20T12:57:23;37.70;;;22.17;;
64816;SDS011;69411;45.656;11.740;2023-12-20T12:59:49;39.65;;;23.33;;
64816;SDS011;69411;45.656;11.740;2023-12-20T13:02:15;36.15;;;21.63;;
64816;SDS011;69411;45.656;11.740;2023-12-20T13:04:42;46.42;;;25.02;;
64816;SDS011;69411;45.656;11.740;2023-12-20T13:07:09;44.45;;;27.08;;
64816;SDS011;69411;45.656;11.740;2023-12-20T13:09:38;44.50;;;28.02;;
64816;SDS011;69411;45.656;11.740;2023-12-20T13:12:08;42.10;;;25.50;;
64816;SDS011;69411;45.656;11.740;2023-12-20T13:14:34;43.85;;;26.35;;
64816;SDS011;69411;45.656;11.740;2023-12-20T13:17:04;50.97;;;30.05;;
64816;SDS011;69411;45.656;11.740;2023-12-20T13:19:31;42.97;;;26.83;;
64816;SDS011;69411;45.656;11.740;2023-12-20T13:21:58;45.10;;;27.27;;
64816;SDS011;69411;45.656;11.740;2023-12-20T13:24:25;45.90;;;25.77;;
64816;SDS011;69411;45.656;11.740;2023-12-20T13:26:51;35.35;;;22.48;;
64816;SDS011;69411;45.656;11.740;2023-12-20T13:29:18;35.28;;;21.63;;
64816;SDS011;69411;45.656;11.740;2023-12-20T13:31:44;38.47;;;23.23;;
64816;SDS011;69411;45.656;11.740;2023-12-20T13:34:10;33.20;;;20.70;;
64816;SDS011;69411;45.656;11.740;2023-12-20T13:36:40;37.92;;;22.73;;
64816;SDS011;69411;45.656;11.740;2023-12-20T13:39:11;38.88;;;23.25;;
64816;SDS011;69411;45.656;11.740;2023-12-20T13:41:38;36.63;;;21.75;;
64816;SDS011;69411;45.656;11.740;2023-12-20T13:44:05;34.20;;;21.02;;
64816;SDS011;69411;45.656;11.740;2023-12-20T13:46:33;33.28;;;19.77;;
64816;SDS011;69411;45.656;11.740;2023-12-20T13:48:59;34.22;;;21.02;;
64816;SDS011;69411;45.656;11.740;2023-12-20T13:51:26;36.05;;;21.48;;
64816;SDS011;69411;45.656;11.740;2023-12-20T13:53:56;33.60;;;20.45;;
64816;SDS011;69411;45.656;11.740;2023-12-20T13:56:24;39.83;;;22.77;;
64816;SDS011;69411;45.656;11.740;2023-12-20T13:58:50;34.35;;;22.75;;
64816;SDS011;69411;45.656;11.740;2023-12-20T14:01:17;34.22;;;20.40;;
64816;SDS011;69411;45.656;11.740;2023-12-20T14:03:43;33.50;;;20.63;;
64816;SDS011;69411;45.656;11.740;2023-12-20T14:06:11;32.95;;;21.15;;
64816;SDS011;69411;45.656;11.740;2023-12-20T14:08:38;30.40;;;18.95;;
64816;SDS011;69411;45.656;11.740;2023-12-20T14:11:04;26.30;;;17.40;;
64816;SDS011;69411;45.656;11.740;2023-12-20T14:13:30;31.55;;;18.38;;
64816;SDS011;69411;45.656;11.740;2023-12-20T14:15:57;37.05;;;20.02;;
64816;SDS011;69411;45.656;11.740;2023-12-20T14:18:24;33.05;;;19.25;;
64816;SDS011;69411;45.656;11.740;2023-12-20T14:20:50;33.58;;;18.98;;
64816;SDS011;69411;45.656;11.740;2023-12-20T14:23:16;36.35;;;21.50;;
64816;SDS011;69411;45.656;11.740;2023-12-20T14:25:42;33.80;;;19.50;;